»·PEaware :: N1239G L52-L88

N1239G :: L52-L88

FLIGHT INFORMATION

Flight Status: Arrived
Operator: Privately registered:
United States
More flights under this callsign
Pilot: Max T. (5401)
Aircraft: CESSNA 172 SKYHAWK
(C172)
More flights by this aircraft type
Origin: L52 Oceano Co
United States
Destination: L88 New Cuyama
United States
More flights between these airports :: More routes between these airports
Route: L52 DCT WYNNR DCT L88
File this flight plan on PilotEdge
Remarks:
Altitude:
(Current/Filed)
7,500ft
Speed:
(Current/Filed)
100kts
Departed: 02-Oct-19 08:44 AM
Arrived: 02-Oct-19 09:21 AM
Distance/Time
Traveled:
47nm/0:37
Distance/Time
To Go:
Arrived

Flight Plot

Page will automatically refresh every two minutes.

Flight plan parsing failed; only flown route is shown


Map Options




Map Legend


Flown Route
Filed Route
Departure Airport
Arrival Airport
Navaid (VOR, NDB)
Fix

Horizontal Profiles

Position Reports

Time Latitude Longitude Heading Altitude Ground
Speed
02-Oct-19 08:32 35.103381 -120.624688 0 18ft 0kts
02-Oct-19 08:33 35.103381 -120.624688 212 18ft 0kts
02-Oct-19 08:34 35.103381 -120.624688 212 18ft 0kts
02-Oct-19 08:35 35.103381 -120.624688 212 18ft 0kts
02-Oct-19 08:37 35.103381 -120.624688 212 18ft 0kts
02-Oct-19 08:38 35.103381 -120.624688 212 18ft 0kts
02-Oct-19 08:39 35.103381 -120.624688 212 18ft 0kts
02-Oct-19 08:40 35.103498 -120.625232 267 18ft 0kts
02-Oct-19 08:41 35.102613 -120.625335 123 18ft 9kts
02-Oct-19 08:42 35.100273 -120.620921 122 18ft 16kts
02-Oct-19 08:43 35.100184 -120.619836 304 18ft 13kts
02-Oct-19 08:44 35.107882 -120.639775 249 437ft 85kts
02-Oct-19 08:45 35.090112 -120.635870 119 1127ft 87kts
02-Oct-19 08:46 35.076923 -120.611802 121 1774ft 84kts
02-Oct-19 08:47 35.073858 -120.586512 59 2317ft 79kts
02-Oct-19 08:48 35.084226 -120.562856 58 2910ft 78kts
02-Oct-19 08:49 35.094555 -120.539200 58 3465ft 80kts
02-Oct-19 08:50 35.103896 -120.514452 72 3993ft 81kts
02-Oct-19 08:51 35.106881 -120.486792 82 4492ft 83kts
02-Oct-19 08:52 35.108274 -120.458575 84 4970ft 83kts
02-Oct-19 08:53 35.109439 -120.430241 84 5420ft 84kts
02-Oct-19 08:54 35.110510 -120.403281 85 5830ft 84kts
02-Oct-19 08:54 35.111457 -120.379353 85 6184ft 85kts
02-Oct-19 08:56 35.112778 -120.345588 86 6643ft 85kts
02-Oct-19 08:57 35.113910 -120.316571 86 7022ft 85kts
02-Oct-19 08:57 35.114858 -120.292152 86 7317ft 87kts
02-Oct-19 08:59 35.116239 -120.255532 87 7499ft 97kts
02-Oct-19 08:59 35.117253 -120.228416 86 7501ft 97kts
02-Oct-19 09:00 35.111273 -120.196430 109 7506ft 98kts
02-Oct-19 09:02 35.099426 -120.160118 111 7511ft 98kts
02-Oct-19 09:02 35.090801 -120.134225 111 7515ft 98kts
02-Oct-19 09:03 35.080417 -120.103123 111 7520ft 99kts
02-Oct-19 09:04 35.070043 -120.072078 111 7525ft 99kts
02-Oct-19 09:05 35.059618 -120.040913 111 7529ft 99kts
02-Oct-19 09:06 35.049198 -120.009801 111 7534ft 99kts
02-Oct-19 09:07 35.038784 -119.978731 111 7536ft 98kts
02-Oct-19 09:08 35.028415 -119.947828 111 7536ft 98kts
02-Oct-19 09:09 35.018045 -119.916946 111 7536ft 98kts
02-Oct-19 09:10 35.007653 -119.886048 111 7536ft 98kts
02-Oct-19 09:11 34.997369 -119.855548 111 7345ft 95kts
02-Oct-19 09:12 34.984308 -119.827366 119 6528ft 95kts
02-Oct-19 09:13 34.970579 -119.799955 119 5749ft 94kts
02-Oct-19 09:14 34.957366 -119.772270 116 4979ft 94kts
02-Oct-19 09:15 34.946381 -119.743171 113 4194ft 94kts
02-Oct-19 09:16 34.936079 -119.713831 113 3328ft 94kts
02-Oct-19 09:17 34.925358 -119.685421 114 3238ft 94kts
02-Oct-19 09:18 34.926082 -119.660414 13 2961ft 96kts
02-Oct-19 09:19 34.938660 -119.682434 293 2199ft 69kts
02-Oct-19 09:20 34.942569 -119.691022 273 2153ft 0kts
02-Oct-19 09:21 34.942569 -119.691022 273 2153ft 0kts
02-Oct-19 09:22 34.942569 -119.691022 273 2153ft 0kts
02-Oct-19 09:23 34.942569 -119.691022 273 2153ft 0kts

Navigation Log

Ident Type
Flight plan parsing failed, navigation log unavailable